sensor_id;sensor_type;location;lat;lon;timestamp;pressure;altitude;pressure_sealevel;temperature;humidity
28310;BME280;15571;50.974;13.936;2023-04-10T00:02:10;101043.97;;;7.36;100.00
28310;BME280;15571;50.974;13.936;2023-04-10T00:05:15;101044.72;;;7.28;100.00
28310;BME280;15571;50.974;13.936;2023-04-10T00:08:18;101040.41;;;7.29;100.00
28310;BME280;15571;50.974;13.936;2023-04-10T00:11:21;101043.00;;;7.29;100.00
28310;BME280;15571;50.974;13.936;2023-04-10T00:14:25;101040.41;;;7.29;100.00
28310;BME280;15571;50.974;13.936;2023-04-10T00:17:31;101045.53;;;7.26;100.00
28310;BME280;15571;50.974;13.936;2023-04-10T00:20:38;101030.66;;;7.20;100.00
28310;BME280;15571;50.974;13.936;2023-04-10T00:23:46;101039.19;;;7.13;100.00
28310;BME280;15571;50.974;13.936;2023-04-10T00:26:48;101034.66;;;7.06;100.00
28310;BME280;15571;50.974;13.936;2023-04-10T00:29:56;101039.00;;;7.04;100.00
28310;BME280;15571;50.974;13.936;2023-04-10T00:33:00;101039.84;;;7.04;100.00
28310;BME280;15571;50.974;13.936;2023-04-10T00:36:08;101034.66;;;7.04;100.00
28310;BME280;15571;50.974;13.936;2023-04-10T00:39:15;101037.22;;;7.03;100.00
28310;BME280;15571;50.974;13.936;2023-04-10T00:42:17;101031.06;;;6.99;100.00
28310;BME280;15571;50.974;13.936;2023-04-10T00:45:25;101038.03;;;7.00;100.00
28310;BME280;15571;50.974;13.936;2023-04-10T00:48:27;101030.19;;;6.98;100.00
28310;BME280;15571;50.974;13.936;2023-04-10T00:51:34;101026.66;;;6.96;100.00
28310;BME280;15571;50.974;13.936;2023-04-10T00:54:38;101024.03;;;6.95;100.00
28310;BME280;15571;50.974;13.936;2023-04-10T00:57:41;101026.56;;;6.92;100.00
28310;BME280;15571;50.974;13.936;2023-04-10T01:00:45;101017.81;;;6.88;100.00
28310;BME280;15571;50.974;13.936;2023-04-10T01:03:51;101031.66;;;6.87;100.00
28310;BME280;15571;50.974;13.936;2023-04-10T01:06:58;101026.41;;;6.84;100.00
28310;BME280;15571;50.974;13.936;2023-04-10T01:10:09;101027.09;;;6.77;100.00
28310;BME280;15571;50.974;13.936;2023-04-10T01:13:14;101017.38;;;6.69;100.00
28310;BME280;15571;50.974;13.936;2023-04-10T01:16:23;101027.50;;;6.57;100.00
28310;BME280;15571;50.974;13.936;2023-04-10T01:19:36;101021.28;;;6.50;100.00
28310;BME280;15571;50.974;13.936;2023-04-10T01:23:06;101020.41;;;6.50;100.00
28310;BME280;15571;50.974;13.936;2023-04-10T01:26:10;101029.00;;;6.46;100.00
28310;BME280;15571;50.974;13.936;2023-04-10T01:29:21;101035.03;;;6.45;100.00
28310;BME280;15571;50.974;13.936;2023-04-10T01:32:29;101047.97;;;6.43;100.00
28310;BME280;15571;50.974;13.936;2023-04-10T01:35:37;101045.34;;;6.42;100.00
28310;BME280;15571;50.974;13.936;2023-04-10T01:38:40;101032.34;;;6.42;100.00
28310;BME280;15571;50.974;13.936;2023-04-10T01:41:47;101025.38;;;6.41;100.00
28310;BME280;15571;50.974;13.936;2023-04-10T01:45:05;101022.75;;;6.39;100.00
28310;BME280;15571;50.974;13.936;2023-04-10T01:48:11;101021.81;;;6.35;100.00
28310;BME280;15571;50.974;13.936;2023-04-10T01:51:16;101020.03;;;6.34;100.00
28310;BME280;15571;50.974;13.936;2023-04-10T01:54:18;101026.06;;;6.33;100.00
28310;BME280;15571;50.974;13.936;2023-04-10T01:57:25;101031.06;;;6.24;100.00
28310;BME280;15571;50.974;13.936;2023-04-10T02:00:37;101029.19;;;6.20;100.00
28310;BME280;15571;50.974;13.936;2023-04-10T02:03:46;101035.09;;;6.13;100.00
28310;BME280;15571;50.974;13.936;2023-04-10T02:06:56;101034.84;;;6.03;100.00
28310;BME280;15571;50.974;13.936;2023-04-10T02:10:11;101028.75;;;6.03;100.00
28310;BME280;15571;50.974;13.936;2023-04-10T02:13:14;101025.16;;;5.98;100.00
28310;BME280;15571;50.974;13.936;2023-04-10T02:16:24;101029.50;;;5.99;100.00
28310;BME280;15571;50.974;13.936;2023-04-10T02:19:29;101031.16;;;5.95;100.00
28310;BME280;15571;50.974;13.936;2023-04-10T02:22:38;101031.09;;;5.93;100.00
28310;BME280;15571;50.974;13.936;2023-04-10T02:25:45;101026.88;;;5.97;100.00
28310;BME280;15571;50.974;13.936;2023-04-10T02:28:52;101022.59;;;5.99;100.00
28310;BME280;15571;50.974;13.936;2023-04-10T02:31:56;101022.69;;;6.02;100.00
28310;BME280;15571;50.974;13.936;2023-04-10T02:35:04;101018.38;;;6.03;100.00
28310;BME280;15571;50.974;13.936;2023-04-10T02:38:12;101020.81;;;5.98;100.00
28310;BME280;15571;50.974;13.936;2023-04-10T02:41:20;101020.78;;;5.97;100.00
28310;BME280;15571;50.974;13.936;2023-04-10T02:44:28;101018.16;;;5.95;100.00
28310;BME280;15571;50.974;13.936;2023-04-10T02:51:02;101023.09;;;5.86;100.00
28310;BME280;15571;50.974;13.936;2023-04-10T02:54:07;101017.91;;;5.86;100.00
28310;BME280;15571;50.974;13.936;2023-04-10T02:57:14;101010.97;;;5.86;100.00
28310;BME280;15571;50.974;13.936;2023-04-10T03:00:24;101023.09;;;5.86;100.00
28310;BME280;15571;50.974;13.936;2023-04-10T03:03:55;101015.13;;;5.80;100.00
28310;BME280;15571;50.974;13.936;2023-04-10T03:07:06;101015.06;;;5.76;100.00
28310;BME280;15571;50.974;13.936;2023-04-10T03:10:15;101012.34;;;5.72;100.00
28310;BME280;15571;50.974;13.936;2023-04-10T03:13:21;101009.69;;;5.70;100.00
28310;BME280;15571;50.974;13.936;2023-04-10T03:16:27;101016.66;;;5.71;100.00
28310;BME280;15571;50.974;13.936;2023-04-10T03:19:32;101014.03;;;5.71;100.00
28310;BME280;15571;50.974;13.936;2023-04-10T03:22:42;101023.69;;;5.75;100.00
28310;BME280;15571;50.974;13.936;2023-04-10T03:25:49;101023.00;;;5.83;100.00
28310;BME280;15571;50.974;13.936;2023-04-10T03:29:00;101028.38;;;5.89;100.00
28310;BME280;15571;50.974;13.936;2023-04-10T03:32:05;101031.16;;;5.95;100.00
28310;BME280;15571;50.974;13.936;2023-04-10T03:35:20;101029.56;;;6.00;100.00
28310;BME280;15571;50.974;13.936;2023-04-10T03:38:25;101022.69;;;6.02;100.00
28310;BME280;15571;50.974;13.936;2023-04-10T03:41:34;101027.09;;;6.05;100.00
28310;BME280;15571;50.974;13.936;2023-04-10T03:44:37;101024.53;;;6.06;100.00
28310;BME280;15571;50.974;13.936;2023-04-10T03:47:46;101027.88;;;6.02;100.00
28310;BME280;15571;50.974;13.936;2023-04-10T03:50:52;101022.69;;;6.02;100.00
28310;BME280;15571;50.974;13.936;2023-04-10T03:53:58;101021.81;;;6.02;100.00
28310;BME280;15571;50.974;13.936;2023-04-10T03:57:01;101027.88;;;6.02;100.00
28310;BME280;15571;50.974;13.936;2023-04-10T04:00:10;101025.19;;;5.99;100.00
28310;BME280;15571;50.974;13.936;2023-04-10T04:03:27;101030.47;;;6.01;100.00
28310;BME280;15571;50.974;13.936;2023-04-10T04:06:35;101029.56;;;6.00;100.00
28310;BME280;15571;50.974;13.936;2023-04-10T04:10:02;101033.06;;;6.01;100.00
28310;BME280;15571;50.974;13.936;2023-04-10T04:13:23;101033.09;;;6.02;100.00
28310;BME280;15571;50.974;13.936;2023-04-10T04:16:40;101030.59;;;6.05;100.00
28310;BME280;15571;50.974;13.936;2023-04-10T04:20:18;101038.44;;;6.08;100.00
28310;BME280;15571;50.974;13.936;2023-04-10T04:23:44;101039.34;;;6.09;100.00
28310;BME280;15571;50.974;13.936;2023-04-10T04:27:13;101044.56;;;6.11;100.00
28310;BME280;15571;50.974;13.936;2023-04-10T04:30:31;101040.25;;;6.11;100.00
28310;BME280;15571;50.974;13.936;2023-04-10T04:33:48;101049.00;;;6.15;100.00
28310;BME280;15571;50.974;13.936;2023-04-10T04:37:26;101046.44;;;6.16;100.00
28310;BME280;15571;50.974;13.936;2023-04-10T04:40:51;101050.84;;;6.19;100.00
28310;BME280;15571;50.974;13.936;2023-04-10T04:44:28;101046.59;;;6.22;100.00
28310;BME280;15571;50.974;13.936;2023-04-10T04:47:50;101055.31;;;6.25;100.00
28310;BME280;15571;50.974;13.936;2023-04-10T04:51:17;101058.81;;;6.25;100.00
28310;BME280;15571;50.974;13.936;2023-04-10T04:54:31;101056.22;;;6.25;100.00
28310;BME280;15571;50.974;13.936;2023-04-10T04:57:49;101066.63;;;6.25;100.00
28310;BME280;15571;50.974;13.936;2023-04-10T05:01:01;101060.56;;;6.26;100.00
28310;BME280;15571;50.974;13.936;2023-04-10T05:04:31;101066.63;;;6.25;100.00
28310;BME280;15571;50.974;13.936;2023-04-10T05:08:09;101066.56;;;6.23;100.00
28310;BME280;15571;50.974;13.936;2023-04-10T05:11:44;101062.19;;;6.22;100.00
28310;BME280;15571;50.974;13.936;2023-04-10T05:15:13;101063.09;;;6.23;100.00
28310;BME280;15571;50.974;13.936;2023-04-10T05:18:36;101063.19;;;6.26;100.00
28310;BME280;15571;50.974;13.936;2023-04-10T05:21:51;101067.59;;;6.30;100.00
28310;BME280;15571;50.974;13.936;2023-04-10T05:24:57;101063.31;;;6.32;100.00
28310;BME280;15571;50.974;13.936;2023-04-10T05:28:13;101063.44;;;6.37;100.00
28310;BME280;15571;50.974;13.936;2023-04-10T05:31:54;101064.38;;;6.41;100.00
28310;BME280;15571;50.974;13.936;2023-04-10T05:35:35;101061.91;;;6.45;100.00
28310;BME280;15571;50.974;13.936;2023-04-10T05:38:57;101072.41;;;6.50;100.00
28310;BME280;15571;50.974;13.936;2023-04-10T05:42:31;101070.75;;;6.52;100.00
28310;BME280;15571;50.974;13.936;2023-04-10T05:45:49;101075.09;;;6.53;100.00
28310;BME280;15571;50.974;13.936;2023-04-10T05:49:15;101069.94;;;6.54;100.00
28310;BME280;15571;50.974;13.936;2023-04-10T05:53:05;101068.34;;;6.60;100.00
28310;BME280;15571;50.974;13.936;2023-04-10T05:56:25;101065.84;;;6.64;100.00
28310;BME280;15571;50.974;13.936;2023-04-10T05:59:55;101055.56;;;6.70;100.00
28310;BME280;15571;50.974;13.936;2023-04-10T06:03:17;101050.56;;;6.78;100.00
28310;BME280;15571;50.974;13.936;2023-04-10T06:06:29;101059.41;;;6.85;100.00
28310;BME280;15571;50.974;13.936;2023-04-10T06:12:53;101063.19;;;6.99;100.00
28310;BME280;15571;50.974;13.936;2023-04-10T06:15:59;101048.59;;;7.06;100.00
28310;BME280;15571;50.974;13.936;2023-04-10T06:19:14;101058.28;;;7.13;100.00
28310;BME280;15571;50.974;13.936;2023-04-10T06:22:19;101056.69;;;7.20;100.00
28310;BME280;15571;50.974;13.936;2023-04-10T06:25:24;101056.81;;;7.26;100.00
28310;BME280;15571;50.974;13.936;2023-04-10T06:28:31;101054.38;;;7.32;100.00
28310;BME280;15571;50.974;13.936;2023-04-10T06:31:37;101052.78;;;7.39;100.00
28310;BME280;15571;50.974;13.936;2023-04-10T06:34:40;101052.88;;;7.44;100.00
28310;BME280;15571;50.974;13.936;2023-04-10T06:37:45;101050.31;;;7.47;100.00
28310;BME280;15571;50.974;13.936;2023-04-10T06:40:52;101053.94;;;7.55;100.00
28310;BME280;15571;50.974;13.936;2023-04-10T06:44:00;101054.94;;;7.62;100.00
28310;BME280;15571;50.974;13.936;2023-04-10T06:47:06;101046.31;;;7.64;100.00
28310;BME280;15571;50.974;13.936;2023-04-10T06:50:18;101047.34;;;7.73;100.00
28310;BME280;15571;50.974;13.936;2023-04-10T06:53:21;101043.09;;;7.78;100.00
28310;BME280;15571;50.974;13.936;2023-04-10T06:56:25;101038.88;;;7.83;100.00
28310;BME280;15571;50.974;13.936;2023-04-10T06:59:29;101045.94;;;7.90;100.00
28310;BME280;15571;50.974;13.936;2023-04-10T07:02:34;101042.56;;;7.96;100.00
28310;BME280;15571;50.974;13.936;2023-04-10T07:05:48;101040.97;;;8.03;100.00
28310;BME280;15571;50.974;13.936;2023-04-10T07:08:54;101043.66;;;8.09;100.00
28310;BME280;15571;50.974;13.936;2023-04-10T07:11:56;101044.63;;;8.14;100.00
28310;BME280;15571;50.974;13.936;2023-04-10T07:15:02;101031.66;;;8.19;100.00
28310;BME280;15571;50.974;13.936;2023-04-10T07:18:08;101038.75;;;8.26;100.00
28310;BME280;15571;50.974;13.936;2023-04-10T07:21:12;101035.34;;;8.30;100.00
28310;BME280;15571;50.974;13.936;2023-04-10T07:24:16;101027.59;;;8.35;100.00
28310;BME280;15571;50.974;13.936;2023-04-10T07:27:27;101033.91;;;8.48;100.00
28310;BME280;15571;50.974;13.936;2023-04-10T07:30:35;101021.81;;;8.53;100.00
28310;BME280;15571;50.974;13.936;2023-04-10T07:33:41;101021.97;;;8.62;100.00
28310;BME280;15571;50.974;13.936;2023-04-10T07:36:44;101027.28;;;8.68;100.00
28310;BME280;15571;50.974;13.936;2023-04-10T07:39:50;101025.69;;;8.80;100.00
28310;BME280;15571;50.974;13.936;2023-04-10T07:43:04;101013.59;;;8.85;100.00
28310;BME280;15571;50.974;13.936;2023-04-10T07:46:10;101015.50;;;8.95;100.00
28310;BME280;15571;50.974;13.936;2023-04-10T07:49:16;101016.47;;;9.03;100.00
28310;BME280;15571;50.974;13.936;2023-04-10T07:52:23;101015.69;;;9.11;100.00
28310;BME280;15571;50.974;13.936;2023-04-10T07:55:27;101012.28;;;9.15;100.00
28310;BME280;15571;50.974;13.936;2023-04-10T07:58:32;101004.50;;;9.19;100.00
28310;BME280;15571;50.974;13.936;2023-04-10T08:01:37;101001.09;;;9.27;100.00
28310;BME280;15571;50.974;13.936;2023-04-10T08:04:39;100992.41;;;9.31;100.00
28310;BME280;15571;50.974;13.936;2023-04-10T08:07:42;100990.81;;;9.42;100.00
28310;BME280;15571;50.974;13.936;2023-04-10T08:10:48;100985.69;;;9.50;100.00
28310;BME280;15571;50.974;13.936;2023-04-10T10:57:48;100802.59;;;12.44;100.00
28310;BME280;15571;50.974;13.936;2023-04-10T11:01:04;100802.53;;;12.47;100.00
28310;BME280;15571;50.974;13.936;2023-04-10T11:10:58;100781.44;;;12.72;100.00
28310;BME280;15571;50.974;13.936;2023-04-10T11:14:12;100784.00;;;12.80;100.00
28310;BME280;15571;50.974;13.936;2023-04-10T11:17:28;100775.19;;;12.88;100.00
28310;BME280;15571;50.974;13.936;2023-04-10T11:21:08;100768.97;;;13.00;100.00
28310;BME280;15571;50.974;13.936;2023-04-10T11:24:15;100768.94;;;13.08;100.00
28310;BME280;15571;50.974;13.936;2023-04-10T11:27:40;100767.97;;;13.21;100.00
28310;BME280;15571;50.974;13.936;2023-04-10T11:30:45;100762.69;;;13.24;100.00
28310;BME280;15571;50.974;13.936;2023-04-10T11:33:49;100753.91;;;13.26;100.00
28310;BME280;15571;50.974;13.936;2023-04-10T11:36:58;100757.44;;;13.26;100.00
28310;BME280;15571;50.974;13.936;2023-04-10T11:40:07;100752.09;;;13.34;100.00
28310;BME280;15571;50.974;13.936;2023-04-10T11:43:15;100750.34;;;13.34;100.00
28310;BME280;15571;50.974;13.936;2023-04-10T11:46:23;100748.59;;;13.33;100.00
28310;BME280;15571;50.974;13.936;2023-04-10T11:49:26;100739.75;;;13.42;100.00
28310;BME280;15571;50.974;13.936;2023-04-10T11:52:31;100721.34;;;13.42;100.00
28310;BME280;15571;50.974;13.936;2023-04-10T11:55:36;100713.44;;;13.45;100.00
28310;BME280;15571;50.974;13.936;2023-04-10T11:58:43;100719.63;;;13.43;100.00
28310;BME280;15571;50.974;13.936;2023-04-10T12:01:48;100718.66;;;13.50;100.00
28310;BME280;15571;50.974;13.936;2023-04-10T12:04:56;100718.63;;;13.54;100.00
28310;BME280;15571;50.974;13.936;2023-04-10T12:08:02;100697.56;;;13.58;100.00
28310;BME280;15571;50.974;13.936;2023-04-10T12:11:09;100692.22;;;13.64;100.00
28310;BME280;15571;50.974;13.936;2023-04-10T12:14:12;100699.31;;;13.59;96.53
28310;BME280;15571;50.974;13.936;2023-04-10T12:20:52;100682.47;;;13.74;99.23
28310;BME280;15571;50.974;13.936;2023-04-10T12:23:55;100693.81;;;13.80;99.30
28310;BME280;15571;50.974;13.936;2023-04-10T12:27:17;100687.63;;;13.86;99.28
28310;BME280;15571;50.974;13.936;2023-04-10T12:30:19;100691.97;;;13.89;98.33
28310;BME280;15571;50.974;13.936;2023-04-10T12:33:22;100683.22;;;13.87;93.31
28310;BME280;15571;50.974;13.936;2023-04-10T12:36:28;100690.13;;;13.94;92.18
28310;BME280;15571;50.974;13.936;2023-04-10T12:39:41;100683.13;;;13.94;88.47
28310;BME280;15571;50.974;13.936;2023-04-10T12:42:44;100677.72;;;14.05;88.97
28310;BME280;15571;50.974;13.936;2023-04-10T12:45:47;100671.56;;;14.06;88.56
28310;BME280;15571;50.974;13.936;2023-04-10T12:48:54;100675.91;;;14.09;86.90
28310;BME280;15571;50.974;13.936;2023-04-10T12:52:02;100672.34;;;14.14;88.52
28310;BME280;15571;50.974;13.936;2023-04-10T12:55:08;100673.22;;;14.13;87.67
28310;BME280;15571;50.974;13.936;2023-04-10T12:58:15;100665.28;;;14.16;87.24
28310;BME280;15571;50.974;13.936;2023-04-10T13:01:19;100661.72;;;14.22;87.55
28310;BME280;15571;50.974;13.936;2023-04-10T13:04:25;100652.91;;;14.23;84.24
28310;BME280;15571;50.974;13.936;2023-04-10T13:07:30;100645.88;;;14.24;79.51
28310;BME280;15571;50.974;13.936;2023-04-10T13:10:33;100645.84;;;14.27;79.14
28310;BME280;15571;50.974;13.936;2023-04-10T13:13:38;100643.25;;;14.24;70.23
28310;BME280;15571;50.974;13.936;2023-04-10T13:16:47;100633.53;;;14.29;74.91
28310;BME280;15571;50.974;13.936;2023-04-10T13:19:56;100629.13;;;14.29;73.02
28310;BME280;15571;50.974;13.936;2023-04-10T13:23:03;100630.84;;;14.34;73.31
28310;BME280;15571;50.974;13.936;2023-04-10T13:26:12;100616.69;;;14.41;74.06
28310;BME280;15571;50.974;13.936;2023-04-10T13:29:21;100625.34;;;14.46;68.42
28310;BME280;15571;50.974;13.936;2023-04-10T13:32:28;100621.69;;;14.58;66.27
28310;BME280;15571;50.974;13.936;2023-04-10T13:35:37;100620.72;;;14.62;63.08
28310;BME280;15571;50.974;13.936;2023-04-10T13:38:46;100607.47;;;14.70;63.94
28310;BME280;15571;50.974;13.936;2023-04-10T13:41:51;100602.06;;;14.79;63.38
28310;BME280;15571;50.974;13.936;2023-04-10T13:44:56;100602.81;;;14.86;62.29
28310;BME280;15571;50.974;13.936;2023-04-10T13:47:59;100593.09;;;14.89;60.04
28310;BME280;15571;50.974;13.936;2023-04-10T13:51:04;100582.47;;;14.94;58.12
28310;BME280;15571;50.974;13.936;2023-04-10T13:54:13;100581.50;;;15.00;56.38
28310;BME280;15571;50.974;13.936;2023-04-10T13:57:16;100575.19;;;15.07;56.93
28310;BME280;15571;50.974;13.936;2023-04-10T14:00:18;100571.63;;;15.09;57.18
28310;BME280;15571;50.974;13.936;2023-04-10T14:03:25;100570.72;;;15.10;55.15
28310;BME280;15571;50.974;13.936;2023-04-10T14:06:28;100564.56;;;15.12;55.82
28310;BME280;15571;50.974;13.936;2023-04-10T14:09:36;100559.25;;;15.15;56.40
28310;BME280;15571;50.974;13.936;2023-04-10T14:12:38;100555.72;;;15.14;57.65
28310;BME280;15571;50.974;13.936;2023-04-10T14:15:43;100544.31;;;15.14;58.43
28310;BME280;15571;50.974;13.936;2023-04-10T14:18:45;100557.50;;;15.14;58.46
28310;BME280;15571;50.974;13.936;2023-04-10T14:21:49;100545.16;;;15.16;58.98
28310;BME280;15571;50.974;13.936;2023-04-10T14:24:54;100550.44;;;15.14;57.11
28310;BME280;15571;50.974;13.936;2023-04-10T14:28:01;100536.41;;;15.14;57.82
28310;BME280;15571;50.974;13.936;2023-04-10T14:31:17;100540.91;;;15.08;57.43
28310;BME280;15571;50.974;13.936;2023-04-10T14:34:22;100535.69;;;15.05;58.29
28310;BME280;15571;50.974;13.936;2023-04-10T14:37:29;100541.00;;;15.02;56.07
28310;BME280;15571;50.974;13.936;2023-04-10T14:40:33;100538.50;;;14.94;55.47
28310;BME280;15571;50.974;13.936;2023-04-10T14:43:35;100526.16;;;14.98;56.67
28310;BME280;15571;50.974;13.936;2023-04-10T14:46:39;100524.44;;;14.97;56.20
28310;BME280;15571;50.974;13.936;2023-04-10T14:49:44;100504.22;;;14.96;56.61
28310;BME280;15571;50.974;13.936;2023-04-10T14:52:50;100514.81;;;14.93;56.00
28310;BME280;15571;50.974;13.936;2023-04-10T14:55:54;100513.06;;;14.93;55.62
28310;BME280;15571;50.974;13.936;2023-04-10T14:58:57;100509.59;;;14.90;55.98
28310;BME280;15571;50.974;13.936;2023-04-10T15:02:03;100505.22;;;14.90;56.71
28310;BME280;15571;50.974;13.936;2023-04-10T15:05:12;100495.59;;;14.88;57.22
28310;BME280;15571;50.974;13.936;2023-04-10T15:08:15;100499.13;;;14.87;57.36
28310;BME280;15571;50.974;13.936;2023-04-10T15:11:19;100499.19;;;14.84;57.37
28310;BME280;15571;50.974;13.936;2023-04-10T15:14:23;100492.19;;;14.83;58.08
28310;BME280;15571;50.974;13.936;2023-04-10T15:17:26;100492.19;;;14.83;59.17
28310;BME280;15571;50.974;13.936;2023-04-10T15:20:32;100484.31;;;14.79;58.74
28310;BME280;15571;50.974;13.936;2023-04-10T15:23:37;100472.97;;;14.77;58.96
28310;BME280;15571;50.974;13.936;2023-04-10T15:26:44;100474.69;;;14.78;59.88
28310;BME280;15571;50.974;13.936;2023-04-10T15:29:47;100464.22;;;14.75;59.97
28310;BME280;15571;50.974;13.936;2023-04-10T15:32:52;100457.19;;;14.74;60.26
28310;BME280;15571;50.974;13.936;2023-04-10T15:35:54;100451.03;;;14.75;60.04
28310;BME280;15571;50.974;13.936;2023-04-10T15:39:07;100450.13;;;14.76;61.01
28310;BME280;15571;50.974;13.936;2023-04-10T15:42:12;100442.19;;;14.78;61.25
28310;BME280;15571;50.974;13.936;2023-04-10T15:45:18;100437.06;;;14.70;58.41
28310;BME280;15571;50.974;13.936;2023-04-10T15:48:21;100436.22;;;14.70;57.33
28310;BME280;15571;50.974;13.936;2023-04-10T15:51:25;100432.72;;;14.69;56.82
28310;BME280;15571;50.974;13.936;2023-04-10T15:54:33;100427.44;;;14.69;58.07
28310;BME280;15571;50.974;13.936;2023-04-10T15:57:38;100419.66;;;14.61;57.58
28310;BME280;15571;50.974;13.936;2023-04-10T16:00:41;100419.59;;;14.63;59.13
28310;BME280;15571;50.974;13.936;2023-04-10T16:03:45;100419.75;;;14.55;59.75
28310;BME280;15571;50.974;13.936;2023-04-10T16:06:51;100418.94;;;14.52;59.74
28310;BME280;15571;50.974;13.936;2023-04-10T16:10:00;100407.59;;;14.48;60.06
28310;BME280;15571;50.974;13.936;2023-04-10T16:13:06;100402.41;;;14.43;58.72
28310;BME280;15571;50.974;13.936;2023-04-10T16:16:12;100397.19;;;14.40;59.07
28310;BME280;15571;50.974;13.936;2023-04-10T16:19:21;100392.84;;;14.39;59.38
28310;BME280;15571;50.974;13.936;2023-04-10T16:22:25;100393.75;;;14.38;60.58
28310;BME280;15571;50.974;13.936;2023-04-10T16:25:28;100390.31;;;14.35;62.56
28310;BME280;15571;50.974;13.936;2023-04-10T16:28:38;100391.16;;;14.35;63.63
28310;BME280;15571;50.974;13.936;2023-04-10T16:31:47;100386.84;;;14.31;65.26
28310;BME280;15571;50.974;13.936;2023-04-10T16:34:49;100383.31;;;14.32;65.60
28310;BME280;15571;50.974;13.936;2023-04-10T16:37:51;100375.44;;;14.30;66.28
28310;BME280;15571;50.974;13.936;2023-04-10T16:40:55;100383.38;;;14.29;67.57
28310;BME280;15571;50.974;13.936;2023-04-10T16:44:04;100379.00;;;14.28;68.50
28310;BME280;15571;50.974;13.936;2023-04-10T16:47:09;100369.47;;;14.22;69.46
28310;BME280;15571;50.974;13.936;2023-04-10T16:50:15;100380.00;;;14.21;69.31
28310;BME280;15571;50.974;13.936;2023-04-10T16:53:26;100373.84;;;14.22;69.99
28310;BME280;15571;50.974;13.936;2023-04-10T16:56:29;100366.06;;;14.15;70.62
28310;BME280;15571;50.974;13.936;2023-04-10T16:59:33;100370.44;;;14.16;71.45
28310;BME280;15571;50.974;13.936;2023-04-10T17:02:38;100372.25;;;14.11;72.22
28310;BME280;15571;50.974;13.936;2023-04-10T17:05:43;100354.75;;;14.10;73.00
28310;BME280;15571;50.974;13.936;2023-04-10T17:08:47;100354.81;;;14.07;73.62
28310;BME280;15571;50.974;13.936;2023-04-10T17:11:52;100353.09;;;14.03;74.66
28310;BME280;15571;50.974;13.936;2023-04-10T17:14:57;100353.19;;;13.98;74.89
28310;BME280;15571;50.974;13.936;2023-04-10T17:18:04;100349.75;;;13.95;74.92
28310;BME280;15571;50.974;13.936;2023-04-10T17:21:10;100343.69;;;13.91;75.55
28310;BME280;15571;50.974;13.936;2023-04-10T17:24:14;100341.13;;;13.87;76.33
28310;BME280;15571;50.974;13.936;2023-04-10T17:27:23;100346.50;;;13.80;76.47
28310;BME280;15571;50.974;13.936;2023-04-10T17:30:26;100340.44;;;13.75;76.64
28310;BME280;15571;50.974;13.936;2023-04-10T17:33:31;100337.91;;;13.69;77.19
28310;BME280;15571;50.974;13.936;2023-04-10T17:36:37;100342.38;;;13.65;77.78
28310;BME280;15571;50.974;13.936;2023-04-10T17:39:48;100327.56;;;13.58;78.22
28310;BME280;15571;50.974;13.936;2023-04-10T17:42:51;100332.88;;;13.53;78.86
28310;BME280;15571;50.974;13.936;2023-04-10T17:46:00;100328.63;;;13.46;79.73
28310;BME280;15571;50.974;13.936;2023-04-10T17:49:05;100322.59;;;13.41;80.44
28310;BME280;15571;50.974;13.936;2023-04-10T17:52:14;100327.88;;;13.35;81.03
28310;BME280;15571;50.974;13.936;2023-04-10T17:55:18;100327.09;;;13.28;81.68
28310;BME280;15571;50.974;13.936;2023-04-10T17:58:23;100324.63;;;13.20;82.27
28310;BME280;15571;50.974;13.936;2023-04-10T18:01:27;100326.41;;;13.15;83.21
28310;BME280;15571;50.974;13.936;2023-04-10T18:04:36;100319.50;;;13.10;83.77
28310;BME280;15571;50.974;13.936;2023-04-10T18:07:41;100321.38;;;13.03;84.10
28310;BME280;15571;50.974;13.936;2023-04-10T18:10:45;100312.66;;;12.98;84.72
28310;BME280;15571;50.974;13.936;2023-04-10T18:13:53;100316.22;;;12.93;85.49
28310;BME280;15571;50.974;13.936;2023-04-10T18:16:56;100310.16;;;12.88;86.05
28310;BME280;15571;50.974;13.936;2023-04-10T18:20:00;100299.75;;;12.81;86.87
28310;BME280;15571;50.974;13.936;2023-04-10T18:23:08;100295.44;;;12.75;87.63
28310;BME280;15571;50.974;13.936;2023-04-10T18:26:12;100291.13;;;12.69;88.71
28310;BME280;15571;50.974;13.936;2023-04-10T18:29:15;100291.19;;;12.65;89.10
28310;BME280;15571;50.974;13.936;2023-04-10T18:32:20;100291.25;;;12.60;90.17
28310;BME280;15571;50.974;13.936;2023-04-10T18:35:22;100292.19;;;12.54;90.88
28310;BME280;15571;50.974;13.936;2023-04-10T18:38:26;100287.94;;;12.49;91.98
28310;BME280;15571;50.974;13.936;2023-04-10T18:41:30;100285.38;;;12.41;92.50
28310;BME280;15571;50.974;13.936;2023-04-10T18:44:42;100276.69;;;12.36;93.45
28310;BME280;15571;50.974;13.936;2023-04-10T18:47:49;100270.66;;;12.29;94.22
28310;BME280;15571;50.974;13.936;2023-04-10T18:50:51;100268.94;;;12.25;94.92
28310;BME280;15571;50.974;13.936;2023-04-10T18:53:53;100261.13;;;12.20;95.42
28310;BME280;15571;50.974;13.936;2023-04-10T18:57:01;100262.91;;;12.15;96.21
28310;BME280;15571;50.974;13.936;2023-04-10T19:00:08;100255.09;;;12.10;96.69
28310;BME280;15571;50.974;13.936;2023-04-10T19:03:15;100250.81;;;12.05;97.43
28310;BME280;15571;50.974;13.936;2023-04-10T19:06:20;100253.47;;;12.00;98.82
28310;BME280;15571;50.974;13.936;2023-04-10T19:09:31;100245.59;;;11.95;99.11
28310;BME280;15571;50.974;13.936;2023-04-10T19:12:39;100242.19;;;11.90;100.00
28310;BME280;15571;50.974;13.936;2023-04-10T19:15:43;100241.34;;;11.87;100.00